createdAt,value
2023-12-26T00:01:14.477Z,99.90
2023-12-26T00:05:23.172Z,99.90
2023-12-26T00:09:31.833Z,99.90
2023-12-26T00:13:40.511Z,99.90
2023-12-26T00:17:49.347Z,99.90
2023-12-26T00:21:58.132Z,99.90
2023-12-26T00:26:06.806Z,99.90
2023-12-26T00:30:15.533Z,99.90
2023-12-26T00:34:24.351Z,99.90
2023-12-26T00:38:33.151Z,99.90
2023-12-26T00:42:42.246Z,99.90
2023-12-26T00:46:50.884Z,99.90
2023-12-26T00:50:59.583Z,99.90
2023-12-26T00:55:09.435Z,99.90
2023-12-26T00:59:21.104Z,99.90
2023-12-26T01:03:29.782Z,99.90
2023-12-26T01:07:38.442Z,99.90
2023-12-26T01:11:47.037Z,99.90
2023-12-26T01:15:55.702Z,99.90
2023-12-26T01:20:04.425Z,99.90
2023-12-26T01:24:13.211Z,99.90
2023-12-26T01:28:21.905Z,99.90
2023-12-26T01:32:31.119Z,99.90
2023-12-26T01:36:59.172Z,99.90
2023-12-26T01:41:07.779Z,99.90
2023-12-26T01:45:16.812Z,99.90
2023-12-26T01:49:26.356Z,99.90
2023-12-26T01:53:36.964Z,99.90
2023-12-26T01:57:47.157Z,99.90
2023-12-26T02:01:56.349Z,99.90
2023-12-26T02:06:24.408Z,99.90
2023-12-26T02:10:33.075Z,99.90
2023-12-26T02:14:42.890Z,99.90
2023-12-26T02:18:52.254Z,99.90
2023-12-26T02:23:04.255Z,99.90
2023-12-26T02:27:23.272Z,99.90
2023-12-26T02:31:33.160Z,99.90
2023-12-26T02:35:42.323Z,99.90
2023-12-26T02:39:51.814Z,99.90
2023-12-26T02:44:00.505Z,99.90
2023-12-26T02:48:09.358Z,99.90
2023-12-26T02:52:19.019Z,99.90
2023-12-26T02:56:27.712Z,99.90
2023-12-26T03:00:36.343Z,99.90
2023-12-26T03:04:45.122Z,99.90
2023-12-26T03:08:53.863Z,99.90
2023-12-26T03:13:22.024Z,99.90
2023-12-26T03:17:39.901Z,99.90
2023-12-26T03:21:48.719Z,99.90
2023-12-26T03:25:57.471Z,99.90
2023-12-26T03:30:06.790Z,99.90
2023-12-26T03:34:15.657Z,99.90
2023-12-26T03:38:24.410Z,99.90
2023-12-26T03:42:52.534Z,99.90
2023-12-26T03:47:02.008Z,99.90
2023-12-26T03:51:10.777Z,99.90
2023-12-26T03:55:19.416Z,99.90
2023-12-26T03:59:28.031Z,99.90
2023-12-26T04:03:36.713Z,99.90
2023-12-26T04:07:45.438Z,99.90
2023-12-26T04:11:54.189Z,99.90
2023-12-26T04:16:22.206Z,99.90
2023-12-26T04:20:30.922Z,99.90
2023-12-26T04:24:39.572Z,99.90
2023-12-26T04:28:48.204Z,99.90
2023-12-26T04:32:57.170Z,99.90
2023-12-26T04:37:06.090Z,99.90
2023-12-26T04:41:14.749Z,99.90
2023-12-26T04:45:23.458Z,99.90
2023-12-26T04:49:32.195Z,99.90
2023-12-26T04:53:40.896Z,99.90
2023-12-26T04:57:49.518Z,99.90
2023-12-26T05:02:17.731Z,99.90
2023-12-26T05:06:26.527Z,99.90
2023-12-26T05:10:35.501Z,99.90
2023-12-26T05:14:44.253Z,99.90
2023-12-26T05:18:53.259Z,99.90
2023-12-26T05:23:02.110Z,99.90
2023-12-26T05:27:12.677Z,99.90
2023-12-26T05:31:21.762Z,99.90
2023-12-26T05:35:49.767Z,99.90
2023-12-26T05:39:58.755Z,99.90
2023-12-26T05:44:07.369Z,99.90
2023-12-26T05:48:16.158Z,99.90
2023-12-26T05:52:25.520Z,99.90
2023-12-26T05:56:34.152Z,99.90
2023-12-26T06:00:42.876Z,99.90
2023-12-26T06:04:51.460Z,99.90
2023-12-26T06:09:00.211Z,99.90
2023-12-26T06:13:08.792Z,99.90
2023-12-26T06:17:17.512Z,99.90
2023-12-26T06:21:26.182Z,99.90
2023-12-26T06:25:34.817Z,99.90
2023-12-26T06:29:43.617Z,99.90
2023-12-26T06:33:52.779Z,99.90
2023-12-26T06:38:01.702Z,99.90
2023-12-26T06:42:10.368Z,99.90
2023-12-26T06:46:18.950Z,99.90
2023-12-26T06:50:27.573Z,99.90
2023-12-26T06:54:36.219Z,99.90
2023-12-26T06:58:44.938Z,99.90
2023-12-26T07:02:55.627Z,99.90
2023-12-26T07:07:04.745Z,99.90
2023-12-26T07:11:13.530Z,99.90
2023-12-26T07:15:22.220Z,99.90
2023-12-26T07:19:31.028Z,99.90
2023-12-26T07:23:39.880Z,99.90
2023-12-26T07:27:48.650Z,99.90
2023-12-26T07:31:57.420Z,99.90
2023-12-26T07:36:09.173Z,99.90
2023-12-26T07:40:17.826Z,99.90
2023-12-26T07:44:39.002Z,99.90
2023-12-26T07:48:59.765Z,99.90
2023-12-26T07:53:08.493Z,99.90
2023-12-26T07:57:17.264Z,99.90
2023-12-26T08:01:45.214Z,99.90
2023-12-26T08:05:53.891Z,99.90
2023-12-26T08:10:02.496Z,99.90
2023-12-26T08:14:11.131Z,99.90
2023-12-26T08:18:19.831Z,1.00
2023-12-26T08:22:28.654Z,1.00
2023-12-26T08:26:37.242Z,1.00
2023-12-26T08:30:46.000Z,1.00
2023-12-26T08:34:54.677Z,1.00
2023-12-26T08:39:03.323Z,20.60
2023-12-26T08:43:11.927Z,1.00
2023-12-26T08:47:20.653Z,99.90
2023-12-26T08:51:29.278Z,99.90
2023-12-26T08:55:37.884Z,1.00
2023-12-26T08:59:46.519Z,99.90
2023-12-26T09:03:57.014Z,1.00
2023-12-26T09:08:06.337Z,1.00
2023-12-26T09:12:15.131Z,1.00
2023-12-26T09:16:23.848Z,99.90
2023-12-26T09:20:32.476Z,6.20
2023-12-26T09:24:45.918Z,1.00
2023-12-26T09:28:54.547Z,1.00
2023-12-26T09:33:04.198Z,1.00
2023-12-26T09:37:13.001Z,1.00
2023-12-26T09:41:25.883Z,99.90
2023-12-26T09:45:34.659Z,99.90
2023-12-26T09:49:45.127Z,99.90
2023-12-26T09:53:58.981Z,99.90
2023-12-26T09:58:08.426Z,99.90
2023-12-26T10:02:17.060Z,96.80
2023-12-26T10:06:25.705Z,1.00
2023-12-26T10:10:34.942Z,15.50
2023-12-26T10:14:43.636Z,1.00
2023-12-26T10:18:52.438Z,1.00
2023-12-26T10:23:05.030Z,1.00
2023-12-26T10:27:13.726Z,1.00
2023-12-26T10:31:22.500Z,1.00
2023-12-26T10:35:31.841Z,1.00
2023-12-26T10:39:42.299Z,1.00
2023-12-26T10:43:53.515Z,1.00
2023-12-26T10:48:06.039Z,1.00
2023-12-26T10:52:17.993Z,1.00
2023-12-26T10:56:28.172Z,1.00
2023-12-26T11:00:36.962Z,1.00
2023-12-26T11:04:47.197Z,1.00
2023-12-26T11:08:55.951Z,1.00
2023-12-26T11:13:04.540Z,1.00
2023-12-26T11:17:13.516Z,1.00
2023-12-26T11:21:22.552Z,1.00
2023-12-26T11:25:51.279Z,1.00
2023-12-26T11:30:00.044Z,1.00
2023-12-26T11:34:12.295Z,1.00
2023-12-26T11:38:21.211Z,1.00
2023-12-26T11:42:30.098Z,1.00
2023-12-26T11:46:39.532Z,1.00
2023-12-26T11:50:48.385Z,1.00
2023-12-26T11:54:57.230Z,1.00
2023-12-26T11:59:05.847Z,1.00
2023-12-26T12:03:14.531Z,1.00
2023-12-26T12:07:23.367Z,1.00
2023-12-26T12:11:32.403Z,1.00
2023-12-26T12:15:44.207Z,1.00
2023-12-26T12:19:53.325Z,1.00
2023-12-26T12:24:02.014Z,1.00
2023-12-26T12:28:11.885Z,1.00
2023-12-26T12:32:20.572Z,1.00
2023-12-26T12:36:29.173Z,1.00
2023-12-26T12:40:37.788Z,1.00
2023-12-26T12:44:47.669Z,1.00
2023-12-26T12:48:56.430Z,1.00
2023-12-26T12:53:06.667Z,1.00
2023-12-26T12:57:15.391Z,1.00
2023-12-26T13:01:24.758Z,1.00
2023-12-26T13:05:33.361Z,1.00
2023-12-26T13:09:51.050Z,1.00
2023-12-26T13:13:59.677Z,1.00
2023-12-26T13:18:08.620Z,1.00
2023-12-26T13:22:20.312Z,1.00
2023-12-26T13:26:41.822Z,1.00
2023-12-26T13:30:51.329Z,1.00
2023-12-26T13:35:00.096Z,1.00
2023-12-26T13:39:09.142Z,1.00
2023-12-26T13:43:17.716Z,1.00
2023-12-26T13:47:26.439Z,1.00
2023-12-26T13:51:35.142Z,1.00
2023-12-26T13:55:43.757Z,1.00
2023-12-26T13:59:52.391Z,1.00
2023-12-26T14:04:02.225Z,1.00
2023-12-26T14:08:11.134Z,1.00
2023-12-26T14:12:19.984Z,1.00
2023-12-26T14:16:28.595Z,1.00
2023-12-26T14:20:37.533Z,1.00
2023-12-26T14:24:46.203Z,1.00
2023-12-26T14:28:56.662Z,1.00
2023-12-26T14:33:05.356Z,1.00
2023-12-26T14:37:14.154Z,1.00
2023-12-26T14:41:22.760Z,1.00
2023-12-26T14:45:31.484Z,1.00
2023-12-26T14:49:40.185Z,1.00
2023-12-26T14:53:49.061Z,1.00
2023-12-26T14:57:57.722Z,1.00
2023-12-26T15:02:07.065Z,1.00
2023-12-26T15:06:18.665Z,1.00
2023-12-26T15:10:27.259Z,1.00
2023-12-26T15:14:42.485Z,1.00
2023-12-26T15:18:46.744Z,1.00
2023-12-26T15:22:55.617Z,1.00
2023-12-26T15:27:05.437Z,1.00
2023-12-26T15:31:20.257Z,1.00
2023-12-26T15:35:29.215Z,1.00
2023-12-26T15:39:38.890Z,1.00
2023-12-26T15:43:48.108Z,1.00
2023-12-26T15:47:57.257Z,1.00
2023-12-26T15:52:06.251Z,1.00
2023-12-26T15:56:16.395Z,1.00
2023-12-26T16:00:25.051Z,1.00
2023-12-26T16:04:33.689Z,1.00
2023-12-26T16:08:42.358Z,1.00
2023-12-26T16:12:51.317Z,1.00
2023-12-26T16:17:00.661Z,1.00
2023-12-26T16:21:10.067Z,1.00
2023-12-26T16:25:18.752Z,1.00
2023-12-26T16:29:27.269Z,1.00
2023-12-26T16:33:36.231Z,1.00
2023-12-26T16:37:44.977Z,1.00
2023-12-26T16:42:02.361Z,1.00
2023-12-26T16:46:11.768Z,1.00
2023-12-26T16:50:21.553Z,1.00
2023-12-26T16:54:30.215Z,1.00
2023-12-26T16:58:42.042Z,1.00
2023-12-26T17:02:51.235Z,1.00
2023-12-26T17:06:59.885Z,1.00
2023-12-26T17:11:14.999Z,1.00
2023-12-26T17:15:23.728Z,1.00
2023-12-26T17:19:32.558Z,1.00
2023-12-26T17:23:41.238Z,1.00
2023-12-26T17:27:49.839Z,1.00
2023-12-26T17:31:59.638Z,1.00
2023-12-26T17:36:08.672Z,1.00
2023-12-26T17:40:17.248Z,1.00
2023-12-26T17:44:26.455Z,1.00
2023-12-26T17:48:35.226Z,1.00
2023-12-26T17:52:44.369Z,1.00
2023-12-26T17:56:52.978Z,1.00
2023-12-26T18:01:01.613Z,1.00
2023-12-26T18:05:10.382Z,1.00
2023-12-26T18:09:19.409Z,1.00
2023-12-26T18:13:27.982Z,1.00
2023-12-26T18:17:38.568Z,1.00
2023-12-26T18:21:48.971Z,1.00
2023-12-26T18:25:58.077Z,1.00
2023-12-26T18:30:07.853Z,1.00
2023-12-26T18:34:16.880Z,1.00
2023-12-26T18:38:25.710Z,1.00
2023-12-26T18:42:34.408Z,1.00
2023-12-26T18:46:46.339Z,1.00
2023-12-26T18:50:56.095Z,1.00
2023-12-26T18:55:05.702Z,1.00
2023-12-26T18:59:14.382Z,1.00
2023-12-26T19:03:23.084Z,1.00
2023-12-26T19:07:38.927Z,1.00
2023-12-26T19:11:49.202Z,1.00
2023-12-26T19:15:59.093Z,1.00
2023-12-26T19:20:10.412Z,1.00
2023-12-26T19:24:19.043Z,1.00
2023-12-26T19:28:28.227Z,1.00
2023-12-26T19:32:36.808Z,1.00
2023-12-26T19:36:45.517Z,1.00
2023-12-26T19:40:54.470Z,1.00
2023-12-26T19:45:03.099Z,1.00
2023-12-26T19:49:12.405Z,1.00
2023-12-26T19:53:21.357Z,1.00
2023-12-26T19:57:30.377Z,1.00
2023-12-26T20:01:44.010Z,1.00
2023-12-26T20:05:58.487Z,1.00
2023-12-26T20:10:06.049Z,1.00
2023-12-26T20:14:19.379Z,1.00
2023-12-26T20:18:28.273Z,1.00
2023-12-26T20:22:37.238Z,1.00
2023-12-26T20:26:50.293Z,1.00
2023-12-26T20:30:59.092Z,1.00
2023-12-26T20:35:08.753Z,1.00
2023-12-26T20:39:19.780Z,1.00
2023-12-26T20:43:28.495Z,1.00
2023-12-26T20:47:37.506Z,1.00
2023-12-26T20:51:47.293Z,6.60
2023-12-26T20:55:55.885Z,10.90
2023-12-26T21:00:05.640Z,17.20
2023-12-26T21:04:14.540Z,40.00
2023-12-26T21:08:23.276Z,42.80
2023-12-26T21:12:32.265Z,91.80
2023-12-26T21:16:42.057Z,99.90
2023-12-26T21:20:50.739Z,99.90
2023-12-26T21:24:59.457Z,99.90
2023-12-26T21:29:08.162Z,99.90
2023-12-26T21:33:16.921Z,99.90
2023-12-26T21:37:25.744Z,99.90
2023-12-26T21:41:34.369Z,99.90
2023-12-26T21:45:43.106Z,99.90
2023-12-26T21:49:54.430Z,1.00
2023-12-26T21:54:02.523Z,1.00
2023-12-26T21:58:11.130Z,1.00
2023-12-26T22:02:20.052Z,1.00
2023-12-26T22:06:28.822Z,1.00
2023-12-26T22:10:39.107Z,1.00
2023-12-26T22:14:47.748Z,1.00
2023-12-26T22:18:58.111Z,1.00
2023-12-26T22:23:07.514Z,1.00
2023-12-26T22:27:17.834Z,1.00
2023-12-26T22:31:26.522Z,1.00
2023-12-26T22:35:36.152Z,1.00
2023-12-26T22:39:45.265Z,1.00
2023-12-26T22:43:54.483Z,1.00
2023-12-26T22:48:03.505Z,1.00
2023-12-26T22:52:12.338Z,99.90
2023-12-26T22:56:20.962Z,99.90
2023-12-26T23:00:31.286Z,99.90
2023-12-26T23:04:40.515Z,1.00
2023-12-26T23:08:49.083Z,99.90
2023-12-26T23:12:57.840Z,56.50
2023-12-26T23:17:06.464Z,99.90
2023-12-26T23:21:19.553Z,1.00
2023-12-26T23:25:28.281Z,99.90
2023-12-26T23:29:36.907Z,1.00
2023-12-26T23:33:45.801Z,1.00
2023-12-26T23:37:54.860Z,99.90
2023-12-26T23:42:05.468Z,99.90
2023-12-26T23:46:14.411Z,1.00
2023-12-26T23:50:24.629Z,1.00
2023-12-26T23:54:34.349Z,1.00
2023-12-26T23:58:43.043Z,1.00
